createdAt,value
2022-07-30T00:00:49.968Z,3.63
2022-07-30T00:03:36.336Z,3.90
2022-07-30T00:06:22.810Z,3.50
2022-07-30T00:09:09.513Z,3.70
2022-07-30T00:11:55.970Z,3.90
2022-07-30T00:14:42.139Z,3.37
2022-07-30T00:17:28.672Z,3.73
2022-07-30T00:20:15.376Z,3.87
2022-07-30T00:23:04.712Z,3.87
2022-07-30T00:25:51.063Z,3.47
2022-07-30T00:28:37.378Z,3.73
2022-07-30T00:31:23.563Z,3.80
2022-07-30T00:34:10.067Z,3.67
2022-07-30T00:36:56.786Z,3.50
2022-07-30T00:39:43.435Z,3.77
2022-07-30T00:42:38.757Z,3.30
2022-07-30T00:45:25.110Z,3.50
2022-07-30T00:48:13.545Z,3.20
2022-07-30T00:51:00.210Z,3.70
2022-07-30T00:53:46.435Z,3.30
2022-07-30T00:56:36.149Z,3.30
2022-07-30T00:59:22.763Z,4.03
2022-07-30T01:02:09.604Z,3.27
2022-07-30T01:04:57.418Z,3.50
2022-07-30T01:07:44.291Z,3.50
2022-07-30T01:10:30.663Z,3.23
2022-07-30T01:13:17.555Z,3.50
2022-07-30T01:16:04.419Z,3.40
2022-07-30T01:19:12.614Z,3.40
2022-07-30T01:22:43.974Z,3.63
2022-07-30T01:25:30.861Z,3.20
2022-07-30T01:28:23.272Z,3.40
2022-07-30T01:31:13.719Z,3.00
2022-07-30T01:34:02.049Z,4.10
2022-07-30T01:36:50.465Z,3.60
2022-07-30T01:39:38.188Z,3.23
2022-07-30T01:42:28.690Z,2.97
2022-07-30T01:45:15.929Z,3.50
2022-07-30T01:48:05.095Z,3.37
2022-07-30T01:50:54.966Z,3.30
2022-07-30T01:53:44.351Z,3.30
2022-07-30T01:56:32.086Z,3.40
2022-07-30T01:59:22.920Z,3.20
2022-07-30T02:02:09.307Z,3.47
2022-07-30T02:04:56.114Z,3.30
2022-07-30T02:07:56.230Z,3.07
2022-07-30T02:10:49.268Z,3.40
2022-07-30T02:13:52.663Z,3.37
2022-07-30T02:16:43.007Z,3.63
2022-07-30T02:19:41.956Z,3.17
2022-07-30T02:22:36.575Z,3.17
2022-07-30T02:25:23.793Z,4.03
2022-07-30T02:28:14.622Z,3.67
2022-07-30T02:31:02.741Z,3.40
2022-07-30T02:34:05.562Z,3.13
2022-07-30T02:36:53.958Z,3.77
2022-07-30T02:39:42.957Z,3.23
2022-07-30T02:42:31.770Z,3.30
2022-07-30T02:45:19.033Z,3.90
2022-07-30T02:48:08.986Z,3.50
2022-07-30T02:51:00.140Z,3.47
2022-07-30T02:53:48.534Z,4.07
2022-07-30T02:56:36.849Z,3.50
2022-07-30T02:59:24.978Z,3.70
2022-07-30T03:02:14.625Z,3.63
2022-07-30T03:05:04.276Z,3.70
2022-07-30T03:07:52.547Z,3.63
2022-07-30T03:10:41.683Z,3.83
2022-07-30T03:13:28.409Z,3.97
2022-07-30T03:16:18.800Z,3.60
2022-07-30T03:19:09.619Z,3.60
2022-07-30T03:21:57.047Z,3.77
2022-07-30T03:24:45.709Z,3.60
2022-07-30T03:27:32.891Z,3.37
2022-07-30T03:30:19.439Z,3.77
2022-07-30T03:33:06.909Z,3.90
2022-07-30T03:35:54.081Z,3.60
2022-07-30T03:38:42.525Z,3.90
2022-07-30T03:41:29.544Z,3.97
2022-07-30T03:44:16.372Z,3.60
2022-07-30T03:47:05.657Z,3.93
2022-07-30T03:49:58.763Z,4.03
2022-07-30T03:52:46.105Z,3.80
2022-07-30T03:55:36.557Z,3.77
2022-07-30T03:59:01.907Z,3.70
2022-07-30T04:01:48.628Z,4.20
2022-07-30T04:04:44.383Z,4.17
2022-07-30T04:07:30.697Z,4.20
2022-07-30T04:10:17.431Z,3.90
2022-07-30T04:13:26.617Z,4.13
2022-07-30T04:16:39.713Z,4.20
2022-07-30T04:19:31.521Z,4.80
2022-07-30T04:22:23.990Z,4.80
2022-07-30T04:25:11.887Z,4.60
2022-07-30T04:28:11.797Z,4.50
2022-07-30T04:30:58.631Z,4.33
2022-07-30T04:33:47.883Z,4.63
2022-07-30T04:36:39.389Z,4.40
2022-07-30T04:39:25.831Z,4.03
2022-07-30T04:42:12.687Z,3.87
2022-07-30T04:45:00.193Z,4.57
2022-07-30T04:47:49.567Z,4.30
2022-07-30T04:50:43.320Z,4.80
2022-07-30T04:53:34.245Z,4.50
2022-07-30T04:56:22.752Z,4.47
2022-07-30T04:59:11.123Z,3.93
2022-07-30T05:01:59.514Z,3.90
2022-07-30T05:04:47.303Z,4.10
2022-07-30T05:07:35.026Z,3.90
2022-07-30T05:10:21.999Z,3.73
2022-07-30T05:13:14.057Z,3.40
2022-07-30T05:16:01.303Z,3.90
2022-07-30T05:18:47.834Z,3.60
2022-07-30T05:21:34.545Z,3.47
2022-07-30T05:24:21.990Z,3.47
2022-07-30T05:27:14.594Z,3.63
2022-07-30T05:30:00.960Z,3.67
2022-07-30T05:32:48.934Z,3.42
2022-07-30T05:35:36.326Z,3.13
2022-07-30T05:38:24.651Z,3.40
2022-07-30T05:41:37.791Z,3.17
2022-07-30T05:44:28.778Z,3.50
2022-07-30T05:47:15.273Z,3.33
2022-07-30T05:50:05.242Z,3.40
2022-07-30T05:52:52.014Z,3.55
2022-07-30T05:55:58.251Z,3.60
2022-07-30T05:59:11.930Z,3.67
2022-07-30T06:02:17.339Z,3.92
2022-07-30T06:05:21.037Z,3.65
2022-07-30T06:08:08.678Z,3.97
2022-07-30T06:10:55.006Z,4.10
2022-07-30T06:13:41.455Z,3.47
2022-07-30T06:16:28.711Z,3.70
2022-07-30T06:19:19.485Z,3.50
2022-07-30T06:22:07.263Z,3.93
2022-07-30T06:24:59.409Z,3.77
2022-07-30T06:27:46.458Z,3.70
2022-07-30T06:30:34.264Z,3.63
2022-07-30T06:33:20.739Z,3.57
2022-07-30T06:36:07.543Z,3.87
2022-07-30T06:39:06.822Z,3.60
2022-07-30T06:42:12.053Z,3.53
2022-07-30T06:45:21.357Z,3.20
2022-07-30T06:48:26.786Z,3.27
2022-07-30T06:51:13.029Z,3.70
2022-07-30T06:54:00.282Z,3.00
2022-07-30T06:56:55.722Z,3.33
2022-07-30T06:59:57.374Z,3.37
2022-07-30T07:03:07.486Z,3.70
2022-07-30T07:05:56.905Z,3.77
2022-07-30T07:08:43.438Z,3.40
2022-07-30T07:11:32.929Z,3.53
2022-07-30T07:14:23.727Z,3.90
2022-07-30T07:17:11.429Z,3.67
2022-07-30T07:20:16.215Z,3.03
2022-07-30T07:23:12.376Z,3.30
2022-07-30T07:26:00.546Z,3.43
2022-07-30T07:28:47.383Z,2.87
2022-07-30T07:32:05.500Z,3.13
2022-07-30T07:34:40.179Z,2.87
2022-07-30T07:37:28.091Z,2.97
2022-07-30T07:40:15.638Z,3.17
2022-07-30T07:43:03.238Z,3.10
2022-07-30T07:45:51.262Z,2.67
2022-07-30T07:48:39.429Z,3.50
2022-07-30T07:51:47.300Z,3.97
2022-07-30T07:54:36.420Z,3.37
2022-07-30T07:57:24.942Z,3.37
2022-07-30T08:00:14.821Z,3.70
2022-07-30T08:03:06.564Z,3.53
2022-07-30T08:05:59.036Z,2.93
2022-07-30T08:09:07.222Z,3.60
2022-07-30T08:12:17.952Z,3.03
2022-07-30T08:15:23.105Z,3.60
2022-07-30T08:18:28.218Z,3.37
2022-07-30T08:21:28.558Z,3.20
2022-07-30T08:24:14.810Z,3.60
2022-07-30T08:27:01.257Z,2.83
2022-07-30T08:29:48.112Z,3.40
2022-07-30T08:32:35.302Z,3.13
2022-07-30T08:35:23.764Z,3.10
2022-07-30T08:38:13.250Z,2.80
2022-07-30T08:40:59.550Z,3.10
2022-07-30T08:43:49.913Z,3.17
2022-07-30T08:46:47.365Z,2.63
2022-07-30T08:49:48.988Z,2.67
2022-07-30T08:52:38.026Z,2.40
2022-07-30T08:55:26.113Z,3.00
2022-07-30T08:58:29.162Z,2.80
2022-07-30T09:01:15.449Z,2.40
2022-07-30T09:04:02.579Z,2.10
2022-07-30T09:06:49.883Z,2.60
2022-07-30T09:09:36.346Z,3.05
2022-07-30T09:12:41.147Z,2.33
2022-07-30T09:15:28.939Z,2.50
2022-07-30T09:18:27.878Z,2.50
2022-07-30T09:21:16.009Z,2.47
2022-07-30T09:24:09.924Z,2.67
2022-07-30T09:27:15.258Z,2.55
2022-07-30T09:30:50.651Z,2.45
2022-07-30T09:33:55.522Z,2.28
2022-07-30T09:37:03.409Z,2.35
2022-07-30T09:40:18.466Z,2.60
2022-07-30T09:43:30.790Z,2.70
2022-07-30T09:46:52.739Z,2.30
2022-07-30T09:50:08.069Z,2.50
2022-07-30T09:52:55.563Z,2.10
2022-07-30T09:55:45.087Z,2.40
2022-07-30T09:58:45.350Z,2.80
2022-07-30T10:01:56.238Z,2.60
2022-07-30T10:05:15.026Z,2.40
2022-07-30T10:08:09.142Z,2.38
2022-07-30T10:10:56.176Z,2.25
2022-07-30T10:13:45.640Z,2.30
2022-07-30T10:16:32.760Z,2.30
2022-07-30T10:19:23.438Z,2.35
2022-07-30T10:22:55.324Z,2.30
2022-07-30T10:26:03.611Z,1.92
2022-07-30T10:29:09.375Z,2.30
2022-07-30T10:32:00.749Z,2.03
2022-07-30T10:34:47.996Z,2.72
2022-07-30T10:37:37.141Z,2.30
2022-07-30T10:40:35.998Z,2.70
2022-07-30T10:43:40.414Z,1.92
2022-07-30T10:46:36.136Z,2.00
2022-07-30T10:49:23.051Z,2.20
2022-07-30T10:52:11.005Z,2.38
2022-07-30T10:54:58.590Z,2.05
2022-07-30T10:58:07.778Z,1.92
2022-07-30T11:00:54.390Z,1.70
2022-07-30T11:03:45.081Z,1.67
2022-07-30T11:06:31.570Z,2.08
2022-07-30T11:09:40.795Z,2.13
2022-07-30T11:12:53.027Z,2.30
2022-07-30T11:15:56.236Z,2.30
2022-07-30T11:19:56.923Z,2.17
2022-07-30T11:22:29.627Z,2.42
2022-07-30T11:25:22.455Z,2.10
2022-07-30T11:28:40.545Z,1.90
2022-07-30T11:32:07.422Z,1.88
2022-07-30T11:34:41.479Z,1.85
2022-07-30T11:37:32.389Z,2.20
2022-07-30T11:40:26.253Z,2.05
2022-07-30T11:43:35.765Z,1.83
2022-07-30T11:46:28.879Z,1.80
2022-07-30T11:49:16.963Z,1.60
2022-07-30T11:52:04.056Z,1.90
2022-07-30T11:54:52.994Z,2.10
2022-07-30T11:57:40.559Z,1.98
2022-07-30T12:00:35.318Z,2.00
2022-07-30T12:03:23.745Z,1.92
2022-07-30T12:06:18.077Z,2.05
2022-07-30T12:09:04.532Z,2.30
2022-07-30T12:11:50.779Z,2.35
2022-07-30T12:14:38.870Z,2.58
2022-07-30T12:17:41.372Z,2.28
2022-07-30T12:20:28.842Z,2.10
2022-07-30T12:23:15.642Z,2.03
2022-07-30T12:26:08.706Z,1.90
2022-07-30T12:29:00.559Z,2.58
2022-07-30T12:31:46.823Z,1.92
2022-07-30T12:34:33.721Z,2.40
2022-07-30T12:37:20.190Z,2.05
2022-07-30T12:40:15.040Z,2.35
2022-07-30T12:43:01.747Z,2.30
2022-07-30T12:45:51.783Z,2.15
2022-07-30T12:48:53.800Z,1.92
2022-07-30T12:51:52.417Z,1.80
2022-07-30T12:55:02.836Z,2.08
2022-07-30T12:57:52.351Z,2.30
2022-07-30T13:00:45.004Z,1.95
2022-07-30T13:03:39.242Z,2.67
2022-07-30T13:06:25.945Z,1.98
2022-07-30T13:09:21.905Z,2.28
2022-07-30T13:12:12.549Z,2.10
2022-07-30T13:14:59.277Z,1.73
2022-07-30T13:17:46.158Z,2.10
2022-07-30T13:20:32.615Z,1.90
2022-07-30T13:23:19.151Z,2.00
2022-07-30T13:26:07.109Z,1.73
2022-07-30T13:28:53.422Z,1.63
2022-07-30T13:31:42.907Z,1.65
2022-07-30T13:34:29.638Z,1.77
2022-07-30T13:37:15.798Z,1.70
2022-07-30T13:40:02.431Z,1.80
2022-07-30T13:42:49.088Z,2.45
2022-07-30T13:45:35.925Z,1.60
2022-07-30T13:48:23.009Z,1.75
2022-07-30T13:51:09.340Z,1.70
2022-07-30T13:53:55.639Z,1.80
2022-07-30T13:56:41.931Z,1.60
2022-07-30T13:59:28.145Z,1.88
2022-07-30T14:02:14.653Z,1.50
2022-07-30T14:05:06.884Z,1.80
2022-07-30T14:07:53.416Z,2.00
2022-07-30T14:10:40.183Z,1.80
2022-07-30T14:13:26.630Z,1.67
2022-07-30T14:16:35.302Z,1.45
2022-07-30T14:19:23.318Z,1.80
2022-07-30T14:22:10.925Z,1.60
2022-07-30T14:24:57.260Z,1.90
2022-07-30T14:27:43.606Z,1.90
2022-07-30T14:30:32.022Z,1.83
2022-07-30T14:33:18.640Z,1.52
2022-07-30T14:36:05.100Z,1.58
2022-07-30T14:38:54.014Z,1.75
2022-07-30T14:41:43.206Z,1.75
2022-07-30T14:44:29.967Z,1.50
2022-07-30T14:47:16.773Z,1.40
2022-07-30T14:50:03.671Z,1.50
2022-07-30T14:52:50.425Z,1.63
2022-07-30T14:55:36.608Z,1.67
2022-07-30T14:58:23.032Z,1.70
2022-07-30T15:01:15.559Z,1.38
2022-07-30T15:04:03.507Z,2.15
2022-07-30T15:06:50.194Z,1.73
2022-07-30T15:09:36.579Z,1.65
2022-07-30T15:12:26.619Z,2.05
2022-07-30T15:15:14.066Z,1.55
2022-07-30T15:18:01.487Z,1.70
2022-07-30T15:20:47.886Z,1.50
2022-07-30T15:23:34.141Z,1.63
2022-07-30T15:26:20.397Z,1.60
2022-07-30T15:29:10.345Z,1.77
2022-07-30T15:32:03.126Z,1.67
2022-07-30T15:34:49.791Z,2.00
2022-07-30T15:37:35.989Z,1.65
2022-07-30T15:40:22.474Z,1.60
2022-07-30T15:43:10.264Z,1.50
2022-07-30T15:45:56.817Z,1.73
2022-07-30T15:48:43.026Z,1.65
2022-07-30T15:51:31.298Z,1.77
2022-07-30T15:54:22.523Z,1.85
2022-07-30T15:57:09.250Z,1.40
2022-07-30T15:59:55.646Z,1.90
2022-07-30T16:02:43.454Z,1.73
2022-07-30T16:05:52.256Z,1.80
2022-07-30T16:08:36.232Z,1.60
2022-07-30T16:11:22.460Z,1.75
2022-07-30T16:14:09.311Z,1.63
2022-07-30T16:16:55.585Z,1.90
2022-07-30T16:19:44.751Z,1.75
2022-07-30T16:22:32.182Z,1.65
2022-07-30T16:25:18.776Z,1.65
2022-07-30T16:28:04.996Z,1.55
2022-07-30T16:30:51.801Z,2.03
2022-07-30T16:33:38.393Z,1.92
2022-07-30T16:36:24.675Z,1.70
2022-07-30T16:39:11.238Z,1.98
2022-07-30T16:41:57.994Z,2.15
2022-07-30T16:44:44.233Z,1.80
2022-07-30T16:47:33.739Z,2.10
2022-07-30T16:50:21.012Z,1.73
2022-07-30T16:53:13.292Z,1.70
2022-07-30T16:56:00.678Z,1.50
2022-07-30T16:58:46.786Z,2.00
2022-07-30T17:01:33.934Z,1.85
2022-07-30T17:04:20.373Z,1.98
2022-07-30T17:07:06.489Z,1.98
2022-07-30T17:09:53.563Z,1.70
2022-07-30T17:12:40.180Z,2.05
2022-07-30T17:15:32.458Z,1.95
2022-07-30T17:18:19.632Z,1.60
2022-07-30T17:21:06.067Z,1.58
2022-07-30T17:23:52.790Z,1.60
2022-07-30T17:26:42.794Z,2.10
2022-07-30T17:29:29.696Z,1.58
2022-07-30T17:32:16.098Z,1.60
2022-07-30T17:35:02.401Z,1.88
2022-07-30T17:37:48.654Z,1.60
2022-07-30T17:40:34.941Z,1.70
2022-07-30T17:43:21.671Z,2.08
2022-07-30T17:46:07.925Z,1.60
2022-07-30T17:48:54.246Z,1.50
2022-07-30T17:51:40.731Z,1.67
2022-07-30T17:54:27.353Z,1.83
2022-07-30T17:57:15.126Z,1.80
2022-07-30T18:00:01.616Z,1.55
2022-07-30T18:02:50.618Z,1.65
2022-07-30T18:05:36.882Z,1.52
2022-07-30T18:08:24.047Z,1.67
2022-07-30T18:11:13.620Z,2.20
2022-07-30T18:14:00.252Z,2.75
2022-07-30T18:16:46.822Z,1.50
2022-07-30T18:19:33.241Z,2.83
2022-07-30T18:22:29.501Z,4.18
2022-07-30T18:25:19.203Z,3.05
2022-07-30T18:28:05.912Z,2.40
2022-07-30T18:30:52.313Z,3.13
2022-07-30T18:33:38.602Z,2.50
2022-07-30T18:36:25.279Z,2.72
2022-07-30T18:39:11.525Z,1.60
2022-07-30T18:41:58.250Z,1.58
2022-07-30T18:44:44.465Z,1.70
2022-07-30T18:47:30.881Z,2.00
2022-07-30T18:50:18.423Z,2.00
2022-07-30T18:53:15.670Z,1.45
2022-07-30T18:56:02.394Z,1.50
2022-07-30T18:58:48.622Z,1.73
2022-07-30T19:01:34.915Z,2.10
2022-07-30T19:04:21.627Z,1.80
2022-07-30T19:07:08.276Z,1.60
2022-07-30T19:09:55.728Z,2.22
2022-07-30T19:12:42.224Z,2.83
2022-07-30T19:15:29.535Z,3.05
2022-07-30T19:18:16.391Z,2.70
2022-07-30T19:21:03.879Z,2.20
2022-07-30T19:23:50.263Z,1.80
2022-07-30T19:26:38.828Z,2.43
2022-07-30T19:29:25.370Z,2.35
2022-07-30T19:32:11.892Z,1.80
2022-07-30T19:34:58.429Z,1.80
2022-07-30T19:37:44.927Z,1.60
2022-07-30T19:40:31.982Z,1.70
2022-07-30T19:43:18.175Z,2.13
2022-07-30T19:46:10.599Z,1.57
2022-07-30T19:48:57.612Z,2.00
2022-07-30T19:52:11.197Z,1.63
2022-07-30T19:54:50.655Z,1.67
2022-07-30T19:57:45.605Z,1.83
2022-07-30T20:00:40.552Z,2.10
2022-07-30T20:03:34.942Z,2.33
2022-07-30T20:06:22.079Z,1.90
2022-07-30T20:09:12.566Z,2.13
2022-07-30T20:12:02.574Z,2.27
2022-07-30T20:14:49.353Z,2.20
2022-07-30T20:17:35.735Z,2.30
2022-07-30T20:20:26.334Z,2.23
2022-07-30T20:23:12.899Z,2.73
2022-07-30T20:25:59.418Z,2.40
2022-07-30T20:28:52.309Z,2.90
2022-07-30T20:31:39.195Z,2.37
2022-07-30T20:34:30.692Z,2.10
2022-07-30T20:37:22.624Z,2.50
2022-07-30T20:40:09.606Z,2.20
2022-07-30T20:42:56.241Z,2.50
2022-07-30T20:45:43.019Z,2.10
2022-07-30T20:48:34.701Z,2.47
2022-07-30T20:51:21.867Z,2.23
2022-07-30T20:54:20.083Z,2.60
2022-07-30T20:57:08.284Z,2.30
2022-07-30T21:00:01.974Z,2.70
2022-07-30T21:02:50.203Z,2.23
2022-07-30T21:05:38.301Z,2.30
2022-07-30T21:08:25.541Z,2.30
2022-07-30T21:11:12.852Z,2.50
2022-07-30T21:14:00.950Z,2.20
2022-07-30T21:16:48.065Z,2.90
2022-07-30T21:19:34.206Z,2.53
2022-07-30T21:22:20.646Z,2.07
2022-07-30T21:25:09.469Z,2.30
2022-07-30T21:27:56.420Z,2.63
2022-07-30T21:30:42.927Z,2.20
2022-07-30T21:33:31.674Z,2.57
2022-07-30T21:36:18.701Z,2.20
2022-07-30T21:39:13.975Z,2.40
2022-07-30T21:42:00.848Z,2.10
2022-07-30T21:44:50.531Z,2.10
2022-07-30T21:47:40.028Z,2.10
2022-07-30T21:50:34.749Z,1.97
2022-07-30T21:53:29.406Z,2.03
2022-07-30T21:56:28.358Z,2.60
2022-07-30T21:59:14.672Z,2.73
2022-07-30T22:02:01.276Z,2.97
2022-07-30T22:04:50.497Z,2.87
2022-07-30T22:07:36.878Z,2.37
2022-07-30T22:10:23.510Z,2.57
2022-07-30T22:13:11.671Z,2.37
2022-07-30T22:15:59.894Z,2.40
2022-07-30T22:18:46.606Z,2.70
2022-07-30T22:21:33.277Z,2.43
2022-07-30T22:24:30.396Z,2.30
2022-07-30T22:27:17.943Z,2.40
2022-07-30T22:30:13.876Z,2.47
2022-07-30T22:33:14.273Z,2.50
2022-07-30T22:36:01.579Z,2.33
2022-07-30T22:38:58.644Z,2.70
2022-07-30T22:41:45.443Z,2.30
2022-07-30T22:44:32.057Z,2.27
2022-07-30T22:47:21.087Z,2.37
2022-07-30T22:50:08.729Z,2.70
2022-07-30T22:53:01.328Z,2.50
2022-07-30T22:56:02.089Z,2.63
2022-07-30T22:58:48.645Z,2.17
2022-07-30T23:01:35.990Z,2.30
2022-07-30T23:04:27.830Z,2.23
2022-07-30T23:10:24.856Z,1.90
2022-07-30T23:12:30.937Z,2.17
2022-07-30T23:13:12.674Z,2.53
2022-07-30T23:15:58.984Z,2.20
2022-07-30T23:18:45.389Z,2.40
2022-07-30T23:21:33.142Z,2.10
2022-07-30T23:24:19.735Z,1.80
2022-07-30T23:27:06.419Z,2.30
2022-07-30T23:29:53.592Z,2.00
2022-07-30T23:32:40.031Z,2.10
2022-07-30T23:35:26.575Z,2.50
2022-07-30T23:38:13.023Z,2.40
2022-07-30T23:41:04.258Z,2.63
2022-07-30T23:43:50.535Z,2.10
2022-07-30T23:46:37.232Z,2.20
2022-07-30T23:49:24.199Z,2.13
2022-07-30T23:52:11.393Z,2.00
2022-07-30T23:54:58.086Z,1.97
2022-07-30T23:57:44.559Z,2.00
